sensor_id;sensor_type;location;lat;lon;timestamp;P1;durP1;ratioP1;P2;durP2;ratioP2
6671;SDS011;3372;48.690;12.362;2022-12-18T00:00:57;75.33;;;29.70;;
6671;SDS011;3372;48.690;12.362;2022-12-18T00:03:22;75.93;;;29.07;;
6671;SDS011;3372;48.690;12.362;2022-12-18T00:05:48;78.93;;;29.93;;
6671;SDS011;3372;48.690;12.362;2022-12-18T00:08:15;70.60;;;29.10;;
6671;SDS011;3372;48.690;12.362;2022-12-18T00:10:41;86.70;;;30.17;;
6671;SDS011;3372;48.690;12.362;2022-12-18T00:13:06;67.77;;;28.07;;
6671;SDS011;3372;48.690;12.362;2022-12-18T00:15:36;71.97;;;26.97;;
6671;SDS011;3372;48.690;12.362;2022-12-18T00:18:02;72.47;;;28.10;;
6671;SDS011;3372;48.690;12.362;2022-12-18T00:20:28;81.00;;;29.30;;
6671;SDS011;3372;48.690;12.362;2022-12-18T00:22:54;65.13;;;26.17;;
6671;SDS011;3372;48.690;12.362;2022-12-18T00:25:20;77.47;;;28.93;;
6671;SDS011;3372;48.690;12.362;2022-12-18T00:27:46;71.67;;;28.20;;
6671;SDS011;3372;48.690;12.362;2022-12-18T00:30:12;71.53;;;25.13;;
6671;SDS011;3372;48.690;12.362;2022-12-18T00:32:37;61.63;;;24.63;;
6671;SDS011;3372;48.690;12.362;2022-12-18T00:35:03;68.33;;;28.63;;
6671;SDS011;3372;48.690;12.362;2022-12-18T00:37:30;78.10;;;27.13;;
6671;SDS011;3372;48.690;12.362;2022-12-18T00:39:55;73.87;;;28.33;;
6671;SDS011;3372;48.690;12.362;2022-12-18T00:42:21;67.50;;;25.73;;
6671;SDS011;3372;48.690;12.362;2022-12-18T00:45:05;67.57;;;25.90;;
6671;SDS011;3372;48.690;12.362;2022-12-18T00:47:31;70.90;;;25.97;;
6671;SDS011;3372;48.690;12.362;2022-12-18T00:49:56;78.50;;;27.00;;
6671;SDS011;3372;48.690;12.362;2022-12-18T00:52:22;67.10;;;24.70;;
6671;SDS011;3372;48.690;12.362;2022-12-18T00:54:48;72.33;;;25.73;;
6671;SDS011;3372;48.690;12.362;2022-12-18T00:57:13;71.30;;;26.13;;
6671;SDS011;3372;48.690;12.362;2022-12-18T00:59:39;78.93;;;28.20;;
6671;SDS011;3372;48.690;12.362;2022-12-18T01:02:04;75.93;;;26.17;;
6671;SDS011;3372;48.690;12.362;2022-12-18T01:04:33;72.27;;;27.50;;
6671;SDS011;3372;48.690;12.362;2022-12-18T01:06:59;70.90;;;27.63;;
6671;SDS011;3372;48.690;12.362;2022-12-18T01:09:25;71.40;;;25.60;;
6671;SDS011;3372;48.690;12.362;2022-12-18T01:11:51;74.57;;;26.90;;
6671;SDS011;3372;48.690;12.362;2022-12-18T01:14:17;71.30;;;26.63;;
6671;SDS011;3372;48.690;12.362;2022-12-18T01:16:42;74.67;;;27.10;;
6671;SDS011;3372;48.690;12.362;2022-12-18T01:19:08;68.23;;;25.03;;
6671;SDS011;3372;48.690;12.362;2022-12-18T01:21:34;70.97;;;26.70;;
6671;SDS011;3372;48.690;12.362;2022-12-18T01:23:59;63.97;;;26.33;;
6671;SDS011;3372;48.690;12.362;2022-12-18T01:26:25;68.03;;;27.13;;
6671;SDS011;3372;48.690;12.362;2022-12-18T01:28:54;64.20;;;25.60;;
6671;SDS011;3372;48.690;12.362;2022-12-18T01:31:22;62.60;;;24.67;;
6671;SDS011;3372;48.690;12.362;2022-12-18T01:33:50;63.27;;;25.37;;
6671;SDS011;3372;48.690;12.362;2022-12-18T01:36:17;68.13;;;26.50;;
6671;SDS011;3372;48.690;12.362;2022-12-18T01:38:46;70.30;;;25.57;;
6671;SDS011;3372;48.690;12.362;2022-12-18T01:41:13;60.93;;;24.70;;
6671;SDS011;3372;48.690;12.362;2022-12-18T01:43:48;78.87;;;28.90;;
6671;SDS011;3372;48.690;12.362;2022-12-18T01:46:17;73.77;;;27.97;;
6671;SDS011;3372;48.690;12.362;2022-12-18T01:48:44;68.97;;;25.83;;
6671;SDS011;3372;48.690;12.362;2022-12-18T01:51:12;71.13;;;26.10;;
6671;SDS011;3372;48.690;12.362;2022-12-18T01:53:39;78.07;;;25.53;;
6671;SDS011;3372;48.690;12.362;2022-12-18T01:56:06;76.67;;;27.33;;
6671;SDS011;3372;48.690;12.362;2022-12-18T01:58:39;73.87;;;26.13;;
6671;SDS011;3372;48.690;12.362;2022-12-18T02:01:22;63.03;;;25.67;;
6671;SDS011;3372;48.690;12.362;2022-12-18T02:03:49;66.50;;;24.27;;
6671;SDS011;3372;48.690;12.362;2022-12-18T02:06:18;63.40;;;23.67;;
6671;SDS011;3372;48.690;12.362;2022-12-18T02:09:18;66.47;;;25.50;;
6671;SDS011;3372;48.690;12.362;2022-12-18T02:14:33;60.53;;;24.00;;
6671;SDS011;3372;48.690;12.362;2022-12-18T02:19:44;63.13;;;24.50;;
6671;SDS011;3372;48.690;12.362;2022-12-18T02:26:05;61.27;;;24.10;;
6671;SDS011;3372;48.690;12.362;2022-12-18T02:29:03;62.30;;;24.07;;
6671;SDS011;3372;48.690;12.362;2022-12-18T02:31:42;60.30;;;23.40;;
6671;SDS011;3372;48.690;12.362;2022-12-18T02:34:11;64.77;;;23.27;;
6671;SDS011;3372;48.690;12.362;2022-12-18T02:36:39;64.53;;;23.77;;
6671;SDS011;3372;48.690;12.362;2022-12-18T02:39:07;66.37;;;23.80;;
6671;SDS011;3372;48.690;12.362;2022-12-18T02:41:36;60.17;;;23.20;;
6671;SDS011;3372;48.690;12.362;2022-12-18T02:44:07;62.77;;;22.70;;
6671;SDS011;3372;48.690;12.362;2022-12-18T02:46:36;68.70;;;26.93;;
6671;SDS011;3372;48.690;12.362;2022-12-18T02:49:22;59.70;;;24.30;;
6671;SDS011;3372;48.690;12.362;2022-12-18T02:55:03;63.13;;;24.07;;
6671;SDS011;3372;48.690;12.362;2022-12-18T02:57:53;65.00;;;23.97;;
6671;SDS011;3372;48.690;12.362;2022-12-18T03:00:28;53.10;;;22.40;;
6671;SDS011;3372;48.690;12.362;2022-12-18T03:03:15;47.20;;;21.00;;
6671;SDS011;3372;48.690;12.362;2022-12-18T03:05:57;62.00;;;21.70;;
6671;SDS011;3372;48.690;12.362;2022-12-18T03:08:31;60.60;;;22.83;;
6671;SDS011;3372;48.690;12.362;2022-12-18T03:11:03;53.73;;;21.70;;
6671;SDS011;3372;48.690;12.362;2022-12-18T03:16:15;50.70;;;20.93;;
6671;SDS011;3372;48.690;12.362;2022-12-18T03:18:48;45.90;;;18.60;;
6671;SDS011;3372;48.690;12.362;2022-12-18T03:21:33;50.23;;;20.90;;
6671;SDS011;3372;48.690;12.362;2022-12-18T03:24:04;50.93;;;18.97;;
6671;SDS011;3372;48.690;12.362;2022-12-18T03:26:32;52.47;;;20.23;;
6671;SDS011;3372;48.690;12.362;2022-12-18T03:29:02;47.33;;;20.50;;
6671;SDS011;3372;48.690;12.362;2022-12-18T03:31:32;51.20;;;20.27;;
6671;SDS011;3372;48.690;12.362;2022-12-18T03:33:58;48.77;;;21.27;;
6671;SDS011;3372;48.690;12.362;2022-12-18T03:36:27;51.03;;;21.03;;
6671;SDS011;3372;48.690;12.362;2022-12-18T03:38:53;51.70;;;20.43;;
6671;SDS011;3372;48.690;12.362;2022-12-18T03:41:29;54.27;;;21.53;;
6671;SDS011;3372;48.690;12.362;2022-12-18T03:49:17;43.80;;;19.03;;
6671;SDS011;3372;48.690;12.362;2022-12-18T03:51:50;47.83;;;20.37;;
6671;SDS011;3372;48.690;12.362;2022-12-18T03:54:22;47.37;;;20.30;;
6671;SDS011;3372;48.690;12.362;2022-12-18T03:56:52;51.60;;;19.50;;
6671;SDS011;3372;48.690;12.362;2022-12-18T03:59:23;52.10;;;21.53;;
6671;SDS011;3372;48.690;12.362;2022-12-18T04:01:51;42.67;;;18.90;;
6671;SDS011;3372;48.690;12.362;2022-12-18T04:04:18;48.20;;;20.57;;
6671;SDS011;3372;48.690;12.362;2022-12-18T04:06:45;57.50;;;22.67;;
6671;SDS011;3372;48.690;12.362;2022-12-18T04:09:13;51.37;;;21.97;;
6671;SDS011;3372;48.690;12.362;2022-12-18T04:11:39;56.77;;;22.27;;
6671;SDS011;3372;48.690;12.362;2022-12-18T04:14:08;55.60;;;22.10;;
6671;SDS011;3372;48.690;12.362;2022-12-18T04:16:34;56.83;;;22.80;;
6671;SDS011;3372;48.690;12.362;2022-12-18T04:19:00;58.43;;;22.33;;
6671;SDS011;3372;48.690;12.362;2022-12-18T04:21:25;59.90;;;21.93;;
6671;SDS011;3372;48.690;12.362;2022-12-18T04:23:51;49.20;;;21.77;;
6671;SDS011;3372;48.690;12.362;2022-12-18T04:26:16;59.63;;;23.03;;
6671;SDS011;3372;48.690;12.362;2022-12-18T04:28:42;54.97;;;24.27;;
6671;SDS011;3372;48.690;12.362;2022-12-18T04:31:07;61.67;;;22.70;;
6671;SDS011;3372;48.690;12.362;2022-12-18T04:33:33;63.00;;;24.40;;
6671;SDS011;3372;48.690;12.362;2022-12-18T04:35:59;53.47;;;21.47;;
6671;SDS011;3372;48.690;12.362;2022-12-18T04:38:24;52.80;;;21.83;;
6671;SDS011;3372;48.690;12.362;2022-12-18T04:40:50;63.70;;;22.83;;
6671;SDS011;3372;48.690;12.362;2022-12-18T04:43:16;53.57;;;20.70;;
6671;SDS011;3372;48.690;12.362;2022-12-18T04:45:41;48.17;;;21.17;;
6671;SDS011;3372;48.690;12.362;2022-12-18T04:48:07;59.37;;;21.00;;
6671;SDS011;3372;48.690;12.362;2022-12-18T04:50:33;57.50;;;21.87;;
6671;SDS011;3372;48.690;12.362;2022-12-18T04:52:59;59.17;;;21.50;;
6671;SDS011;3372;48.690;12.362;2022-12-18T04:55:24;54.07;;;21.40;;
6671;SDS011;3372;48.690;12.362;2022-12-18T04:57:50;48.47;;;19.67;;
6671;SDS011;3372;48.690;12.362;2022-12-18T05:00:16;51.00;;;22.23;;
6671;SDS011;3372;48.690;12.362;2022-12-18T05:02:42;52.40;;;21.30;;
6671;SDS011;3372;48.690;12.362;2022-12-18T05:05:07;52.60;;;22.17;;
6671;SDS011;3372;48.690;12.362;2022-12-18T05:07:33;54.70;;;21.30;;
6671;SDS011;3372;48.690;12.362;2022-12-18T05:09:59;59.93;;;24.17;;
6671;SDS011;3372;48.690;12.362;2022-12-18T05:12:24;53.57;;;21.50;;
6671;SDS011;3372;48.690;12.362;2022-12-18T05:14:50;49.23;;;20.43;;
6671;SDS011;3372;48.690;12.362;2022-12-18T05:17:16;56.50;;;22.20;;
6671;SDS011;3372;48.690;12.362;2022-12-18T05:19:41;55.00;;;21.43;;
6671;SDS011;3372;48.690;12.362;2022-12-18T05:22:07;52.50;;;21.50;;
6671;SDS011;3372;48.690;12.362;2022-12-18T05:24:33;52.80;;;20.40;;
6671;SDS011;3372;48.690;12.362;2022-12-18T05:26:59;55.63;;;20.47;;
6671;SDS011;3372;48.690;12.362;2022-12-18T05:29:24;50.10;;;19.90;;
6671;SDS011;3372;48.690;12.362;2022-12-18T05:31:50;47.60;;;19.63;;
6671;SDS011;3372;48.690;12.362;2022-12-18T05:34:16;58.20;;;23.37;;
6671;SDS011;3372;48.690;12.362;2022-12-18T05:36:41;62.07;;;23.17;;
6671;SDS011;3372;48.690;12.362;2022-12-18T05:39:07;57.20;;;22.87;;
6671;SDS011;3372;48.690;12.362;2022-12-18T05:41:34;56.60;;;22.20;;
6671;SDS011;3372;48.690;12.362;2022-12-18T05:43:59;59.20;;;23.70;;
6671;SDS011;3372;48.690;12.362;2022-12-18T05:46:25;58.17;;;23.40;;
6671;SDS011;3372;48.690;12.362;2022-12-18T05:48:51;56.33;;;23.47;;
6671;SDS011;3372;48.690;12.362;2022-12-18T05:51:17;65.57;;;24.47;;
6671;SDS011;3372;48.690;12.362;2022-12-18T05:53:45;54.90;;;22.73;;
6671;SDS011;3372;48.690;12.362;2022-12-18T05:56:12;59.17;;;22.67;;
6671;SDS011;3372;48.690;12.362;2022-12-18T05:58:40;58.80;;;24.00;;
6671;SDS011;3372;48.690;12.362;2022-12-18T06:01:15;55.60;;;22.80;;
6671;SDS011;3372;48.690;12.362;2022-12-18T06:03:45;75.13;;;27.30;;
6671;SDS011;3372;48.690;12.362;2022-12-18T06:06:15;75.70;;;29.07;;
6671;SDS011;3372;48.690;12.362;2022-12-18T06:08:45;65.73;;;26.13;;
6671;SDS011;3372;48.690;12.362;2022-12-18T06:11:11;66.30;;;24.00;;
6671;SDS011;3372;48.690;12.362;2022-12-18T06:13:37;64.27;;;23.60;;
6671;SDS011;3372;48.690;12.362;2022-12-18T06:16:04;67.43;;;25.10;;
6671;SDS011;3372;48.690;12.362;2022-12-18T06:18:30;60.07;;;24.50;;
6671;SDS011;3372;48.690;12.362;2022-12-18T06:20:56;57.03;;;23.10;;
6671;SDS011;3372;48.690;12.362;2022-12-18T06:23:23;56.60;;;22.13;;
6671;SDS011;3372;48.690;12.362;2022-12-18T06:25:48;61.00;;;21.77;;
6671;SDS011;3372;48.690;12.362;2022-12-18T06:28:14;59.50;;;24.40;;
6671;SDS011;3372;48.690;12.362;2022-12-18T06:30:42;54.13;;;21.10;;
6671;SDS011;3372;48.690;12.362;2022-12-18T06:33:09;47.80;;;21.47;;
6671;SDS011;3372;48.690;12.362;2022-12-18T06:35:34;59.27;;;22.23;;
6671;SDS011;3372;48.690;12.362;2022-12-18T06:38:01;52.23;;;21.30;;
6671;SDS011;3372;48.690;12.362;2022-12-18T06:40:27;57.97;;;22.37;;
6671;SDS011;3372;48.690;12.362;2022-12-18T06:42:53;62.37;;;23.97;;
6671;SDS011;3372;48.690;12.362;2022-12-18T06:45:18;65.03;;;25.17;;
6671;SDS011;3372;48.690;12.362;2022-12-18T06:47:44;54.10;;;21.00;;
6671;SDS011;3372;48.690;12.362;2022-12-18T06:50:09;56.60;;;20.97;;
6671;SDS011;3372;48.690;12.362;2022-12-18T06:52:36;62.60;;;25.07;;
6671;SDS011;3372;48.690;12.362;2022-12-18T06:55:01;61.70;;;22.87;;
6671;SDS011;3372;48.690;12.362;2022-12-18T06:57:27;51.57;;;21.43;;
6671;SDS011;3372;48.690;12.362;2022-12-18T06:59:53;61.07;;;23.83;;
6671;SDS011;3372;48.690;12.362;2022-12-18T07:02:19;56.50;;;22.10;;
6671;SDS011;3372;48.690;12.362;2022-12-18T07:04:44;64.67;;;22.97;;
6671;SDS011;3372;48.690;12.362;2022-12-18T07:07:10;53.17;;;23.07;;
6671;SDS011;3372;48.690;12.362;2022-12-18T07:09:36;61.03;;;23.23;;
6671;SDS011;3372;48.690;12.362;2022-12-18T07:12:01;56.70;;;23.80;;
6671;SDS011;3372;48.690;12.362;2022-12-18T07:14:27;52.63;;;22.47;;
6671;SDS011;3372;48.690;12.362;2022-12-18T07:16:53;50.80;;;19.67;;
6671;SDS011;3372;48.690;12.362;2022-12-18T07:19:18;52.10;;;20.83;;
6671;SDS011;3372;48.690;12.362;2022-12-18T07:21:44;52.97;;;20.83;;
6671;SDS011;3372;48.690;12.362;2022-12-18T07:24:09;49.93;;;19.37;;
6671;SDS011;3372;48.690;12.362;2022-12-18T07:26:35;51.90;;;19.83;;
6671;SDS011;3372;48.690;12.362;2022-12-18T07:29:00;51.57;;;20.43;;
6671;SDS011;3372;48.690;12.362;2022-12-18T07:31:26;51.13;;;21.17;;
6671;SDS011;3372;48.690;12.362;2022-12-18T07:33:52;48.63;;;20.87;;
6671;SDS011;3372;48.690;12.362;2022-12-18T07:36:18;48.03;;;22.37;;
6671;SDS011;3372;48.690;12.362;2022-12-18T07:38:46;54.47;;;21.07;;
6671;SDS011;3372;48.690;12.362;2022-12-18T07:41:13;51.33;;;21.40;;
6671;SDS011;3372;48.690;12.362;2022-12-18T07:43:39;56.53;;;20.67;;
6671;SDS011;3372;48.690;12.362;2022-12-18T07:46:06;51.03;;;21.00;;
6671;SDS011;3372;48.690;12.362;2022-12-18T07:48:31;49.63;;;20.60;;
6671;SDS011;3372;48.690;12.362;2022-12-18T07:51:01;52.63;;;19.67;;
6671;SDS011;3372;48.690;12.362;2022-12-18T07:53:29;51.93;;;20.43;;
6671;SDS011;3372;48.690;12.362;2022-12-18T07:55:59;50.97;;;20.40;;
6671;SDS011;3372;48.690;12.362;2022-12-18T07:58:26;46.93;;;20.17;;
6671;SDS011;3372;48.690;12.362;2022-12-18T08:00:51;49.10;;;20.50;;
6671;SDS011;3372;48.690;12.362;2022-12-18T08:03:18;54.63;;;21.43;;
6671;SDS011;3372;48.690;12.362;2022-12-18T08:05:43;52.63;;;22.17;;
6671;SDS011;3372;48.690;12.362;2022-12-18T08:08:09;43.80;;;18.77;;
6671;SDS011;3372;48.690;12.362;2022-12-18T08:10:35;51.10;;;19.30;;
6671;SDS011;3372;48.690;12.362;2022-12-18T08:13:01;56.13;;;27.00;;
6671;SDS011;3372;48.690;12.362;2022-12-18T08:15:26;46.77;;;20.60;;
6671;SDS011;3372;48.690;12.362;2022-12-18T08:17:52;49.83;;;20.30;;
6671;SDS011;3372;48.690;12.362;2022-12-18T08:20:20;48.07;;;20.67;;
6671;SDS011;3372;48.690;12.362;2022-12-18T08:22:46;48.17;;;19.90;;
6671;SDS011;3372;48.690;12.362;2022-12-18T08:25:12;51.47;;;20.60;;
6671;SDS011;3372;48.690;12.362;2022-12-18T08:27:37;46.97;;;18.77;;
6671;SDS011;3372;48.690;12.362;2022-12-18T08:30:03;44.63;;;18.80;;
6671;SDS011;3372;48.690;12.362;2022-12-18T08:32:30;44.10;;;18.97;;
6671;SDS011;3372;48.690;12.362;2022-12-18T08:34:57;52.23;;;20.20;;
6671;SDS011;3372;48.690;12.362;2022-12-18T08:37:23;43.23;;;19.97;;
6671;SDS011;3372;48.690;12.362;2022-12-18T08:39:49;45.33;;;18.97;;
6671;SDS011;3372;48.690;12.362;2022-12-18T08:42:14;52.47;;;19.60;;
6671;SDS011;3372;48.690;12.362;2022-12-18T08:44:58;43.40;;;18.50;;
6671;SDS011;3372;48.690;12.362;2022-12-18T08:47:24;43.07;;;17.97;;
6671;SDS011;3372;48.690;12.362;2022-12-18T08:49:52;49.60;;;19.40;;
6671;SDS011;3372;48.690;12.362;2022-12-18T08:52:17;48.43;;;20.27;;
6671;SDS011;3372;48.690;12.362;2022-12-18T08:54:43;44.37;;;17.90;;
6671;SDS011;3372;48.690;12.362;2022-12-18T08:57:09;45.67;;;19.00;;
6671;SDS011;3372;48.690;12.362;2022-12-18T08:59:35;47.60;;;19.53;;
6671;SDS011;3372;48.690;12.362;2022-12-18T09:02:00;46.20;;;18.70;;
6671;SDS011;3372;48.690;12.362;2022-12-18T09:04:26;42.53;;;18.73;;
6671;SDS011;3372;48.690;12.362;2022-12-18T09:06:51;39.50;;;19.50;;
6671;SDS011;3372;48.690;12.362;2022-12-18T09:09:17;42.97;;;18.90;;
6671;SDS011;3372;48.690;12.362;2022-12-18T09:11:43;43.57;;;19.87;;
6671;SDS011;3372;48.690;12.362;2022-12-18T09:14:09;48.20;;;18.80;;
6671;SDS011;3372;48.690;12.362;2022-12-18T09:16:35;53.37;;;19.30;;
6671;SDS011;3372;48.690;12.362;2022-12-18T09:19:02;48.80;;;21.00;;
6671;SDS011;3372;48.690;12.362;2022-12-18T09:21:30;46.27;;;19.20;;
6671;SDS011;3372;48.690;12.362;2022-12-18T09:23:57;43.23;;;18.90;;
6671;SDS011;3372;48.690;12.362;2022-12-18T09:26:23;46.00;;;20.47;;
6671;SDS011;3372;48.690;12.362;2022-12-18T09:28:50;43.27;;;19.70;;
6671;SDS011;3372;48.690;12.362;2022-12-18T09:31:16;46.90;;;19.37;;
6671;SDS011;3372;48.690;12.362;2022-12-18T09:33:43;42.47;;;17.73;;
6671;SDS011;3372;48.690;12.362;2022-12-18T09:36:10;49.57;;;18.17;;
6671;SDS011;3372;48.690;12.362;2022-12-18T09:38:37;41.90;;;18.60;;
6671;SDS011;3372;48.690;12.362;2022-12-18T09:43:49;41.17;;;17.87;;
6671;SDS011;3372;48.690;12.362;2022-12-18T09:46:18;43.60;;;18.17;;
6671;SDS011;3372;48.690;12.362;2022-12-18T09:48:51;45.33;;;18.93;;
6671;SDS011;3372;48.690;12.362;2022-12-18T09:51:25;38.50;;;16.87;;
6671;SDS011;3372;48.690;12.362;2022-12-18T09:54:09;42.03;;;17.17;;
6671;SDS011;3372;48.690;12.362;2022-12-18T09:56:40;40.60;;;17.03;;
6671;SDS011;3372;48.690;12.362;2022-12-18T09:59:15;36.30;;;17.40;;
6671;SDS011;3372;48.690;12.362;2022-12-18T10:01:49;32.30;;;16.37;;
6671;SDS011;3372;48.690;12.362;2022-12-18T10:04:14;35.60;;;14.93;;
6671;SDS011;3372;48.690;12.362;2022-12-18T10:06:55;39.70;;;17.57;;
6671;SDS011;3372;48.690;12.362;2022-12-18T10:09:37;36.70;;;17.00;;
6671;SDS011;3372;48.690;12.362;2022-12-18T10:12:25;33.30;;;15.27;;
6671;SDS011;3372;48.690;12.362;2022-12-18T10:15:24;36.97;;;15.87;;
6671;SDS011;3372;48.690;12.362;2022-12-18T10:18:01;39.93;;;16.60;;
6671;SDS011;3372;48.690;12.362;2022-12-18T10:23:13;43.63;;;18.17;;
6671;SDS011;3372;48.690;12.362;2022-12-18T10:25:57;46.57;;;21.03;;
6671;SDS011;3372;48.690;12.362;2022-12-18T10:28:27;38.33;;;16.80;;
6671;SDS011;3372;48.690;12.362;2022-12-18T10:30:56;44.00;;;18.47;;
6671;SDS011;3372;48.690;12.362;2022-12-18T10:33:23;42.70;;;17.93;;
6671;SDS011;3372;48.690;12.362;2022-12-18T10:35:52;36.83;;;16.60;;
6671;SDS011;3372;48.690;12.362;2022-12-18T10:38:29;44.60;;;18.27;;
6671;SDS011;3372;48.690;12.362;2022-12-18T10:43:27;50.00;;;19.47;;
6671;SDS011;3372;48.690;12.362;2022-12-18T10:45:57;42.10;;;18.23;;
6671;SDS011;3372;48.690;12.362;2022-12-18T10:48:37;40.57;;;18.03;;
6671;SDS011;3372;48.690;12.362;2022-12-18T10:51:27;48.43;;;20.53;;
6671;SDS011;3372;48.690;12.362;2022-12-18T10:56:50;49.10;;;18.77;;
6671;SDS011;3372;48.690;12.362;2022-12-18T10:59:17;41.87;;;18.97;;
6671;SDS011;3372;48.690;12.362;2022-12-18T11:01:47;44.90;;;19.50;;
6671;SDS011;3372;48.690;12.362;2022-12-18T11:04:21;39.57;;;17.47;;
6671;SDS011;3372;48.690;12.362;2022-12-18T11:06:52;36.93;;;17.80;;
6671;SDS011;3372;48.690;12.362;2022-12-18T11:09:19;39.37;;;18.87;;
6671;SDS011;3372;48.690;12.362;2022-12-18T11:11:53;40.50;;;18.30;;
6671;SDS011;3372;48.690;12.362;2022-12-18T11:14:43;38.57;;;18.60;;
6671;SDS011;3372;48.690;12.362;2022-12-18T11:17:17;49.20;;;22.60;;
6671;SDS011;3372;48.690;12.362;2022-12-18T11:19:53;44.90;;;18.20;;
6671;SDS011;3372;48.690;12.362;2022-12-18T11:22:33;47.17;;;19.27;;
6671;SDS011;3372;48.690;12.362;2022-12-18T11:25:05;38.33;;;17.83;;
6671;SDS011;3372;48.690;12.362;2022-12-18T11:27:47;47.03;;;18.40;;
6671;SDS011;3372;48.690;12.362;2022-12-18T11:30:23;49.60;;;19.60;;
6671;SDS011;3372;48.690;12.362;2022-12-18T11:32:58;47.33;;;18.93;;
6671;SDS011;3372;48.690;12.362;2022-12-18T11:40:45;43.80;;;20.43;;
6671;SDS011;3372;48.690;12.362;2022-12-18T11:43:17;46.23;;;18.83;;
6671;SDS011;3372;48.690;12.362;2022-12-18T11:45:53;43.03;;;17.77;;
6671;SDS011;3372;48.690;12.362;2022-12-18T11:48:27;42.13;;;18.50;;
6671;SDS011;3372;48.690;12.362;2022-12-18T11:50:59;48.10;;;19.70;;
6671;SDS011;3372;48.690;12.362;2022-12-18T11:53:27;41.07;;;17.57;;
6671;SDS011;3372;48.690;12.362;2022-12-18T12:09:20;36.43;;;17.50;;
6671;SDS011;3372;48.690;12.362;2022-12-18T12:12:05;39.77;;;18.70;;
6671;SDS011;3372;48.690;12.362;2022-12-18T12:17:37;34.13;;;17.20;;
6671;SDS011;3372;48.690;12.362;2022-12-18T12:20:25;39.23;;;18.33;;
6671;SDS011;3372;48.690;12.362;2022-12-18T12:23:36;33.30;;;18.30;;
6671;SDS011;3372;48.690;12.362;2022-12-18T12:26:13;31.47;;;15.53;;
6671;SDS011;3372;48.690;12.362;2022-12-18T12:28:53;33.50;;;16.90;;
6671;SDS011;3372;48.690;12.362;2022-12-18T12:34:45;29.93;;;15.80;;
6671;SDS011;3372;48.690;12.362;2022-12-18T12:37:33;37.33;;;16.57;;
6671;SDS011;3372;48.690;12.362;2022-12-18T12:40:02;35.73;;;15.83;;
6671;SDS011;3372;48.690;12.362;2022-12-18T12:43:02;36.07;;;15.90;;
6671;SDS011;3372;48.690;12.362;2022-12-18T12:51:16;40.60;;;18.73;;
6671;SDS011;3372;48.690;12.362;2022-12-18T12:53:51;39.43;;;17.40;;
6671;SDS011;3372;48.690;12.362;2022-12-18T12:56:18;36.60;;;16.80;;
6671;SDS011;3372;48.690;12.362;2022-12-18T12:58:55;32.00;;;16.30;;
6671;SDS011;3372;48.690;12.362;2022-12-18T13:07:20;35.30;;;17.47;;
6671;SDS011;3372;48.690;12.362;2022-12-18T13:20:34;33.60;;;16.93;;
6671;SDS011;3372;48.690;12.362;2022-12-18T13:25:49;37.60;;;17.30;;
6671;SDS011;3372;48.690;12.362;2022-12-18T13:28:16;36.57;;;17.47;;
6671;SDS011;3372;48.690;12.362;2022-12-18T13:30:56;35.00;;;17.30;;
6671;SDS011;3372;48.690;12.362;2022-12-18T13:44:10;32.60;;;15.87;;
6671;SDS011;3372;48.690;12.362;2022-12-18T13:46:55;36.10;;;16.70;;
6671;SDS011;3372;48.690;12.362;2022-12-18T13:49:36;33.30;;;16.10;;
6671;SDS011;3372;48.690;12.362;2022-12-18T13:54:43;32.43;;;15.87;;
6671;SDS011;3372;48.690;12.362;2022-12-18T13:57:30;31.70;;;15.97;;
6671;SDS011;3372;48.690;12.362;2022-12-18T13:59:58;32.60;;;15.57;;
6671;SDS011;3372;48.690;12.362;2022-12-18T14:02:44;34.73;;;15.70;;
6671;SDS011;3372;48.690;12.362;2022-12-18T14:05:30;31.43;;;15.50;;
6671;SDS011;3372;48.690;12.362;2022-12-18T14:08:02;30.70;;;14.37;;
6671;SDS011;3372;48.690;12.362;2022-12-18T14:10:33;27.27;;;15.17;;
6671;SDS011;3372;48.690;12.362;2022-12-18T14:13:01;32.50;;;15.60;;
6671;SDS011;3372;48.690;12.362;2022-12-18T14:18:23;34.40;;;17.00;;
6671;SDS011;3372;48.690;12.362;2022-12-18T14:20:51;33.37;;;16.47;;
6671;SDS011;3372;48.690;12.362;2022-12-18T14:26:03;26.50;;;14.77;;
6671;SDS011;3372;48.690;12.362;2022-12-18T14:28:50;36.27;;;16.97;;
6671;SDS011;3372;48.690;12.362;2022-12-18T14:31:23;37.40;;;18.57;;
6671;SDS011;3372;48.690;12.362;2022-12-18T14:33:51;39.00;;;19.20;;
6671;SDS011;3372;48.690;12.362;2022-12-18T14:36:18;32.50;;;17.33;;
6671;SDS011;3372;48.690;12.362;2022-12-18T14:39:00;34.83;;;17.83;;
6671;SDS011;3372;48.690;12.362;2022-12-18T14:41:26;47.53;;;22.87;;
6671;SDS011;3372;48.690;12.362;2022-12-18T14:43:54;40.47;;;17.73;;
6671;SDS011;3372;48.690;12.362;2022-12-18T14:49:00;32.93;;;14.90;;
6671;SDS011;3372;48.690;12.362;2022-12-18T14:51:49;45.27;;;22.60;;
6671;SDS011;3372;48.690;12.362;2022-12-18T14:54:18;44.63;;;21.60;;
6671;SDS011;3372;48.690;12.362;2022-12-18T14:56:45;36.97;;;19.67;;
6671;SDS011;3372;48.690;12.362;2022-12-18T14:59:14;39.43;;;19.03;;
6671;SDS011;3372;48.690;12.362;2022-12-18T15:04:27;41.90;;;20.80;;
6671;SDS011;3372;48.690;12.362;2022-12-18T15:07:18;38.53;;;20.13;;
6671;SDS011;3372;48.690;12.362;2022-12-18T15:12:37;39.03;;;18.90;;
6671;SDS011;3372;48.690;12.362;2022-12-18T15:15:43;46.37;;;22.60;;
6671;SDS011;3372;48.690;12.362;2022-12-18T15:20:45;53.23;;;24.40;;
6671;SDS011;3372;48.690;12.362;2022-12-18T15:23:16;43.23;;;22.10;;
6671;SDS011;3372;48.690;12.362;2022-12-18T15:26:00;43.13;;;21.47;;
6671;SDS011;3372;48.690;12.362;2022-12-18T15:31:00;34.83;;;18.73;;
6671;SDS011;3372;48.690;12.362;2022-12-18T15:33:33;33.97;;;15.97;;
6671;SDS011;3372;48.690;12.362;2022-12-18T15:36:01;33.90;;;16.77;;
6671;SDS011;3372;48.690;12.362;2022-12-18T15:38:33;29.17;;;16.77;;
6671;SDS011;3372;48.690;12.362;2022-12-18T15:40:59;38.93;;;19.00;;
6671;SDS011;3372;48.690;12.362;2022-12-18T15:43:25;33.50;;;16.37;;
6671;SDS011;3372;48.690;12.362;2022-12-18T15:46:05;31.70;;;16.90;;
6671;SDS011;3372;48.690;12.362;2022-12-18T15:48:38;36.60;;;17.97;;
6671;SDS011;3372;48.690;12.362;2022-12-18T15:51:18;35.40;;;17.50;;
6671;SDS011;3372;48.690;12.362;2022-12-18T15:53:47;36.47;;;17.30;;
6671;SDS011;3372;48.690;12.362;2022-12-18T15:56:15;29.20;;;16.27;;
6671;SDS011;3372;48.690;12.362;2022-12-18T15:59:00;30.77;;;16.80;;
6671;SDS011;3372;48.690;12.362;2022-12-18T16:01:29;36.80;;;19.83;;
6671;SDS011;3372;48.690;12.362;2022-12-18T16:03:56;35.93;;;18.93;;
6671;SDS011;3372;48.690;12.362;2022-12-18T16:06:22;34.50;;;17.97;;
6671;SDS011;3372;48.690;12.362;2022-12-18T16:08:48;34.60;;;17.43;;
6671;SDS011;3372;48.690;12.362;2022-12-18T16:11:27;34.40;;;17.43;;
6671;SDS011;3372;48.690;12.362;2022-12-18T16:14:23;36.60;;;18.40;;
6671;SDS011;3372;48.690;12.362;2022-12-18T16:16:54;72.50;;;30.40;;
6671;SDS011;3372;48.690;12.362;2022-12-18T16:19:21;59.10;;;25.43;;
6671;SDS011;3372;48.690;12.362;2022-12-18T16:21:48;37.93;;;17.23;;
6671;SDS011;3372;48.690;12.362;2022-12-18T16:24:25;34.37;;;17.57;;
6671;SDS011;3372;48.690;12.362;2022-12-18T16:26:56;30.07;;;16.00;;
6671;SDS011;3372;48.690;12.362;2022-12-18T16:29:24;44.07;;;18.40;;
6671;SDS011;3372;48.690;12.362;2022-12-18T16:32:01;30.83;;;16.57;;
6671;SDS011;3372;48.690;12.362;2022-12-18T16:34:30;31.90;;;17.70;;
6671;SDS011;3372;48.690;12.362;2022-12-18T16:36:58;31.83;;;16.50;;
6671;SDS011;3372;48.690;12.362;2022-12-18T16:39:25;37.57;;;18.90;;
6671;SDS011;3372;48.690;12.362;2022-12-18T16:41:51;34.33;;;18.17;;
6671;SDS011;3372;48.690;12.362;2022-12-18T16:44:17;55.53;;;23.97;;